createdAt,value
2018-12-06T00:00:00.470Z,20.82
2018-12-06T00:01:00.473Z,20.93
2018-12-06T00:02:00.556Z,20.85
2018-12-06T00:03:00.614Z,20.86
2018-12-06T00:04:00.659Z,20.83
2018-12-06T00:05:00.547Z,20.88
2018-12-06T00:06:00.687Z,20.92
2018-12-06T00:07:00.589Z,20.78
2018-12-06T00:08:00.696Z,20.86
2018-12-06T00:09:00.736Z,20.77
2018-12-06T00:10:00.749Z,20.78
2018-12-06T00:11:00.642Z,20.82
2018-12-06T00:12:00.655Z,20.78
2018-12-06T00:13:00.826Z,20.82
2018-12-06T00:14:00.689Z,20.82
2018-12-06T00:15:00.827Z,20.80
2018-12-06T00:16:00.710Z,20.82
2018-12-06T00:17:00.741Z,20.80
2018-12-06T00:18:00.891Z,20.75
2018-12-06T00:19:00.766Z,20.75
2018-12-06T00:20:00.815Z,20.59
2018-12-06T00:21:00.915Z,20.74
2018-12-06T00:22:00.857Z,20.64
2018-12-06T00:23:01.045Z,20.63
2018-12-06T00:24:00.843Z,20.63
2018-12-06T00:25:00.855Z,20.56
2018-12-06T00:26:00.991Z,20.58
2018-12-06T00:27:00.879Z,20.63
2018-12-06T00:28:01.009Z,20.67
2018-12-06T00:29:00.908Z,20.60
2018-12-06T00:30:00.945Z,20.64
2018-12-06T00:31:00.946Z,20.75
2018-12-06T00:32:00.945Z,20.63
2018-12-06T00:33:01.119Z,20.67
2018-12-06T00:34:00.992Z,20.66
2018-12-06T00:35:00.999Z,20.73
2018-12-06T00:36:01.035Z,20.75
2018-12-06T00:37:01.029Z,20.70
2018-12-06T00:38:01.155Z,20.70
2018-12-06T00:39:01.072Z,20.70
2018-12-06T00:40:01.078Z,20.68
2018-12-06T00:41:01.098Z,20.59
2018-12-06T00:42:01.117Z,20.56
2018-12-06T00:43:01.225Z,20.66
2018-12-06T00:44:01.154Z,20.68
2018-12-06T00:45:01.284Z,20.68
2018-12-06T00:46:01.176Z,20.63
2018-12-06T00:47:01.188Z,20.66
2018-12-06T00:48:01.373Z,20.60
2018-12-06T00:49:01.217Z,20.67
2018-12-06T00:50:01.227Z,20.64
2018-12-06T00:51:01.256Z,20.59
2018-12-06T00:52:01.386Z,20.68
2018-12-06T00:53:01.505Z,20.66
2018-12-06T00:54:01.290Z,20.63
2018-12-06T00:55:01.302Z,20.55
2018-12-06T00:56:01.447Z,20.58
2018-12-06T00:57:01.458Z,20.58
2018-12-06T00:58:01.503Z,20.58
2018-12-06T00:59:01.364Z,20.63
2018-12-06T01:00:01.399Z,20.55
2018-12-06T01:01:01.400Z,20.52
2018-12-06T01:02:01.539Z,20.58
2018-12-06T01:03:01.535Z,20.40
2018-12-06T01:04:01.568Z,20.50
2018-12-06T01:05:01.474Z,20.56
2018-12-06T01:06:01.598Z,20.49
2018-12-06T01:07:01.485Z,20.53
2018-12-06T01:08:01.625Z,20.48
2018-12-06T01:09:01.618Z,20.39
2018-12-06T01:10:01.534Z,20.36
2018-12-06T01:11:01.550Z,20.44
2018-12-06T01:12:01.578Z,20.40
2018-12-06T01:13:01.612Z,20.44
2018-12-06T01:14:01.786Z,20.32
2018-12-06T01:15:01.602Z,20.33
2018-12-06T01:16:01.742Z,20.37
2018-12-06T01:17:01.652Z,20.37
2018-12-06T01:18:01.651Z,20.36
2018-12-06T01:19:01.866Z,20.34
2018-12-06T01:20:01.682Z,20.36
2018-12-06T01:21:01.701Z,20.44
2018-12-06T01:22:01.718Z,20.39
2018-12-06T01:23:01.752Z,20.44
2018-12-06T01:24:01.823Z,20.44
2018-12-06T01:25:01.760Z,20.33
2018-12-06T01:26:01.779Z,20.34
2018-12-06T01:27:01.909Z,20.29
2018-12-06T01:28:01.847Z,20.26
2018-12-06T01:29:02.038Z,20.29
2018-12-06T01:30:01.956Z,20.29
2018-12-06T01:31:01.853Z,20.27
2018-12-06T01:32:01.860Z,20.24
2018-12-06T01:33:02.001Z,20.17
2018-12-06T01:34:02.116Z,20.15
2018-12-06T01:35:01.927Z,20.18
2018-12-06T01:36:01.920Z,20.15
2018-12-06T01:37:01.945Z,20.19
2018-12-06T01:38:01.987Z,20.14
2018-12-06T01:39:02.139Z,20.02
2018-12-06T01:40:01.975Z,20.02
2018-12-06T01:41:02.090Z,20.02
2018-12-06T01:42:02.003Z,20.07
2018-12-06T01:43:02.047Z,20.00
2018-12-06T01:44:02.053Z,20.03
2018-12-06T01:45:02.052Z,20.03
2018-12-06T01:46:02.180Z,20.03
2018-12-06T01:47:02.082Z,19.96
2018-12-06T01:48:02.099Z,19.90
2018-12-06T01:49:02.164Z,19.93
2018-12-06T01:50:02.126Z,19.99
2018-12-06T01:51:02.192Z,19.97
2018-12-06T01:52:02.154Z,19.87
2018-12-06T01:53:02.294Z,19.90
2018-12-06T01:54:02.411Z,19.84
2018-12-06T01:55:02.324Z,19.87
2018-12-06T01:56:02.210Z,19.81
2018-12-06T01:57:02.352Z,19.71
2018-12-06T01:58:02.246Z,19.72
2018-12-06T01:59:02.353Z,19.74
2018-12-06T02:00:02.400Z,19.64
2018-12-06T02:01:02.288Z,19.78
2018-12-06T02:02:02.319Z,19.67
2018-12-06T02:03:02.444Z,19.78
2018-12-06T02:04:02.433Z,19.67
2018-12-06T02:05:02.355Z,19.77
2018-12-06T02:06:02.484Z,19.66
2018-12-06T02:07:02.396Z,19.66
2018-12-06T02:08:02.386Z,19.67
2018-12-06T02:09:02.628Z,19.70
2018-12-06T02:10:02.439Z,19.67
2018-12-06T02:11:02.431Z,19.70
2018-12-06T02:12:02.576Z,19.64
2018-12-06T02:13:02.458Z,19.67
2018-12-06T02:14:02.626Z,19.63
2018-12-06T02:15:02.492Z,19.55
2018-12-06T02:16:02.515Z,19.57
2018-12-06T02:17:02.644Z,19.56
2018-12-06T02:18:02.594Z,19.53
2018-12-06T02:19:02.714Z,19.45
2018-12-06T02:20:02.560Z,19.55
2018-12-06T02:21:02.572Z,19.49
2018-12-06T02:22:02.599Z,19.47
2018-12-06T02:23:02.619Z,19.47
2018-12-06T02:24:02.728Z,19.49
2018-12-06T02:25:02.645Z,19.47
2018-12-06T02:26:02.780Z,19.41
2018-12-06T02:27:02.789Z,19.39
2018-12-06T02:28:02.692Z,19.38
2018-12-06T02:29:02.925Z,19.35
2018-12-06T02:30:02.720Z,19.30
2018-12-06T02:31:02.766Z,19.32
2018-12-06T02:32:02.746Z,19.32
2018-12-06T02:33:02.782Z,19.23
2018-12-06T02:34:02.921Z,19.27
2018-12-06T02:35:02.796Z,19.19
2018-12-06T02:36:02.795Z,19.12
2018-12-06T02:37:02.937Z,19.15
2018-12-06T02:38:02.838Z,19.22
2018-12-06T02:39:02.934Z,19.22
2018-12-06T02:40:02.853Z,19.24
2018-12-06T02:41:02.876Z,19.26
2018-12-06T02:42:02.889Z,19.16
2018-12-06T02:43:02.904Z,19.24
2018-12-06T02:44:03.015Z,19.20
2018-12-06T02:45:02.948Z,19.27
2018-12-06T02:46:02.939Z,19.12
2018-12-06T02:47:03.089Z,19.12
2018-12-06T02:48:02.975Z,19.15
2018-12-06T02:49:03.082Z,19.12
2018-12-06T02:50:03.020Z,19.08
2018-12-06T02:51:03.142Z,19.15
2018-12-06T02:52:03.156Z,19.20
2018-12-06T02:53:03.172Z,19.11
2018-12-06T02:54:03.289Z,19.17
2018-12-06T02:55:03.063Z,19.11
2018-12-06T02:56:03.098Z,19.09
2018-12-06T02:57:03.105Z,19.15
2018-12-06T02:58:03.128Z,19.09
2018-12-06T02:59:03.234Z,19.09
2018-12-06T03:00:03.160Z,19.05
2018-12-06T03:01:03.165Z,19.08
2018-12-06T03:02:03.169Z,19.09
2018-12-06T03:03:03.186Z,19.04
2018-12-06T03:04:03.306Z,18.98
2018-12-06T03:05:03.341Z,18.91
2018-12-06T03:06:03.251Z,18.92
2018-12-06T03:07:03.252Z,18.86
2018-12-06T03:08:03.266Z,18.92
2018-12-06T03:09:03.333Z,18.94
2018-12-06T03:10:03.281Z,18.96
2018-12-06T03:11:03.321Z,18.86
2018-12-06T03:12:03.436Z,18.89
2018-12-06T03:13:03.330Z,18.97
2018-12-06T03:14:03.349Z,18.92
2018-12-06T03:15:03.379Z,18.94
2018-12-06T03:16:03.504Z,18.98
2018-12-06T03:17:03.558Z,19.05
2018-12-06T03:18:03.533Z,18.98
2018-12-06T03:19:03.425Z,18.98
2018-12-06T03:20:03.432Z,19.01
2018-12-06T03:21:03.449Z,18.96
2018-12-06T03:22:03.611Z,18.91
2018-12-06T03:23:03.488Z,18.91
2018-12-06T03:24:03.494Z,18.91
2018-12-06T03:25:03.525Z,18.97
2018-12-06T03:26:03.601Z,18.85
2018-12-06T03:27:03.581Z,18.83
2018-12-06T03:28:03.675Z,18.85
2018-12-06T03:29:03.689Z,18.82
2018-12-06T03:30:03.703Z,18.81
2018-12-06T03:31:03.725Z,18.83
2018-12-06T03:32:03.716Z,18.76
2018-12-06T03:33:03.629Z,18.76
2018-12-06T03:34:03.631Z,18.68
2018-12-06T03:35:03.777Z,18.68
2018-12-06T03:36:03.787Z,18.66
2018-12-06T03:37:03.783Z,18.53
2018-12-06T03:38:03.696Z,18.55
2018-12-06T03:39:03.706Z,18.52
2018-12-06T03:40:03.850Z,18.49
2018-12-06T03:41:03.750Z,18.48
2018-12-06T03:42:03.810Z,18.30
2018-12-06T03:43:03.765Z,18.33
2018-12-06T03:44:03.790Z,18.26
2018-12-06T03:45:03.939Z,18.26
2018-12-06T03:46:03.811Z,18.28
2018-12-06T03:47:03.827Z,18.36
2018-12-06T03:48:03.837Z,18.37
2018-12-06T03:49:03.975Z,18.43
2018-12-06T03:50:04.097Z,18.51
2018-12-06T03:51:03.878Z,18.46
2018-12-06T03:52:03.889Z,18.45
2018-12-06T03:53:04.031Z,18.43
2018-12-06T03:54:03.923Z,18.42
2018-12-06T03:55:04.159Z,18.39
2018-12-06T03:56:03.949Z,18.30
2018-12-06T03:57:03.966Z,18.33
2018-12-06T03:58:03.981Z,18.41
2018-12-06T03:59:03.989Z,18.37
2018-12-06T04:00:04.154Z,18.36
2018-12-06T04:01:04.059Z,18.45
2018-12-06T04:02:04.041Z,18.33
2018-12-06T04:03:04.056Z,18.36
2018-12-06T04:04:04.190Z,18.33
2018-12-06T04:05:04.193Z,18.30
2018-12-06T04:06:04.101Z,18.30
2018-12-06T04:07:04.106Z,18.18
2018-12-06T04:08:04.242Z,18.09
2018-12-06T04:09:04.135Z,18.13
2018-12-06T04:10:04.300Z,18.09
2018-12-06T04:11:04.168Z,18.11
2018-12-06T04:12:04.176Z,18.02
2018-12-06T04:13:04.198Z,18.00
2018-12-06T04:14:04.195Z,17.97
2018-12-06T04:15:04.490Z,17.90
2018-12-06T04:16:04.357Z,17.95
2018-12-06T04:17:04.378Z,17.95
2018-12-06T04:18:04.294Z,17.88
2018-12-06T04:19:04.267Z,18.02
2018-12-06T04:20:04.352Z,18.03
2018-12-06T04:21:04.299Z,17.94
2018-12-06T04:22:04.304Z,18.02
2018-12-06T04:23:04.332Z,17.87
2018-12-06T04:24:04.356Z,17.84
2018-12-06T04:25:04.461Z,17.75
2018-12-06T04:26:04.492Z,17.76
2018-12-06T04:27:04.378Z,17.72
2018-12-06T04:28:04.521Z,17.76
2018-12-06T04:29:04.411Z,17.90
2018-12-06T04:30:04.531Z,17.78
2018-12-06T04:31:04.442Z,17.76
2018-12-06T04:32:04.453Z,17.79
2018-12-06T04:33:04.467Z,17.78
2018-12-06T04:34:04.483Z,17.72
2018-12-06T04:35:04.599Z,17.71
2018-12-06T04:36:04.516Z,17.80
2018-12-06T04:37:04.528Z,17.69
2018-12-06T04:38:04.544Z,17.65
2018-12-06T04:39:04.567Z,17.54
2018-12-06T04:40:04.677Z,17.59
2018-12-06T04:41:04.708Z,17.50
2018-12-06T04:42:04.718Z,17.54
2018-12-06T04:43:04.597Z,17.41
2018-12-06T04:44:04.749Z,17.39
2018-12-06T04:45:04.739Z,17.38
2018-12-06T04:46:04.656Z,17.42
2018-12-06T04:47:04.783Z,17.47
2018-12-06T04:48:04.803Z,17.44
2018-12-06T04:49:04.685Z,17.47
2018-12-06T04:50:04.790Z,17.37
2018-12-06T04:51:04.840Z,17.41
2018-12-06T04:52:04.737Z,17.56
2018-12-06T04:53:04.752Z,17.52
2018-12-06T04:54:04.880Z,17.41
2018-12-06T04:55:04.879Z,17.44
2018-12-06T04:56:04.779Z,17.42
2018-12-06T04:57:04.795Z,17.27
2018-12-06T04:58:04.822Z,17.34
2018-12-06T04:59:04.831Z,17.28
2018-12-06T05:00:04.986Z,17.37
2018-12-06T05:01:04.849Z,17.28
2018-12-06T05:02:04.867Z,17.39
2018-12-06T05:03:05.000Z,17.42
2018-12-06T05:04:05.018Z,17.39
2018-12-06T05:05:05.016Z,17.41
2018-12-06T05:06:05.045Z,17.44
2018-12-06T05:07:04.939Z,17.32
2018-12-06T05:08:05.071Z,17.49
2018-12-06T05:09:04.958Z,17.41
2018-12-06T05:10:05.019Z,17.44
2018-12-06T05:11:05.116Z,17.54
2018-12-06T05:12:04.995Z,17.57
2018-12-06T05:13:05.013Z,17.60
2018-12-06T05:14:05.040Z,17.57
2018-12-06T05:15:05.184Z,17.60
2018-12-06T05:16:05.095Z,17.53
2018-12-06T05:17:05.071Z,17.59
2018-12-06T05:18:05.077Z,17.60
2018-12-06T05:19:05.096Z,17.73
2018-12-06T05:20:05.204Z,17.78
2018-12-06T05:21:05.119Z,17.75
2018-12-06T05:22:05.146Z,17.79
2018-12-06T05:23:05.146Z,17.82
2018-12-06T05:24:05.177Z,17.86
2018-12-06T05:25:05.312Z,17.79
2018-12-06T05:26:05.186Z,17.73
2018-12-06T05:27:05.210Z,17.76
2018-12-06T05:28:05.230Z,17.71
2018-12-06T05:29:05.233Z,17.68
2018-12-06T05:30:05.472Z,17.66
2018-12-06T05:31:05.247Z,17.66
2018-12-06T05:32:05.274Z,17.69
2018-12-06T05:33:05.280Z,17.69
2018-12-06T05:34:05.422Z,17.72
2018-12-06T05:35:05.362Z,17.75
2018-12-06T05:36:05.319Z,17.75
2018-12-06T05:37:05.465Z,17.76
2018-12-06T05:38:05.477Z,17.80
2018-12-06T05:39:05.373Z,17.76
2018-12-06T05:40:05.474Z,17.73
2018-12-06T05:41:05.397Z,17.76
2018-12-06T05:42:05.414Z,17.76
2018-12-06T05:43:05.421Z,17.73
2018-12-06T05:44:05.435Z,17.90
2018-12-06T05:45:05.499Z,17.84
2018-12-06T05:46:05.459Z,17.93
2018-12-06T05:47:05.468Z,17.90
2018-12-06T05:48:05.708Z,17.93
2018-12-06T05:49:05.502Z,18.03
2018-12-06T05:50:05.638Z,18.06
2018-12-06T05:51:05.533Z,18.08
2018-12-06T05:52:05.536Z,18.05
2018-12-06T05:53:05.603Z,18.09
2018-12-06T05:54:05.570Z,18.11
2018-12-06T05:55:05.580Z,18.11
2018-12-06T05:56:05.716Z,18.00
2018-12-06T05:57:05.701Z,18.05
2018-12-06T05:58:05.631Z,18.15
2018-12-06T05:59:05.629Z,18.02
2018-12-06T06:00:05.644Z,18.02
2018-12-06T06:01:05.783Z,18.00
2018-12-06T06:02:05.781Z,17.95
2018-12-06T06:03:05.819Z,17.88
2018-12-06T06:04:05.704Z,18.02
2018-12-06T06:05:05.776Z,18.02
2018-12-06T06:06:05.858Z,18.02
2018-12-06T06:07:05.898Z,18.00
2018-12-06T06:08:05.776Z,17.95
2018-12-06T06:09:05.891Z,18.02
2018-12-06T06:10:05.777Z,17.93
2018-12-06T06:11:05.924Z,17.88
2018-12-06T06:12:05.965Z,17.97
2018-12-06T06:13:05.827Z,17.87
2018-12-06T06:14:06.009Z,17.90
2018-12-06T06:15:05.854Z,17.76
2018-12-06T06:16:05.987Z,17.79
2018-12-06T06:17:06.102Z,17.87
2018-12-06T06:18:05.907Z,17.76
2018-12-06T06:19:05.928Z,17.88
2018-12-06T06:20:05.921Z,17.82
2018-12-06T06:21:05.931Z,17.79
2018-12-06T06:22:06.039Z,17.79
2018-12-06T06:23:05.954Z,17.73
2018-12-06T06:24:06.097Z,17.75
2018-12-06T06:25:05.990Z,17.82
2018-12-06T06:26:06.009Z,17.80
2018-12-06T06:27:06.117Z,17.73
2018-12-06T06:28:06.032Z,17.72
2018-12-06T06:29:06.049Z,17.65
2018-12-06T06:30:06.181Z,17.79
2018-12-06T06:31:06.062Z,17.60
2018-12-06T06:32:06.185Z,17.76
2018-12-06T06:33:06.218Z,17.76
2018-12-06T06:34:06.102Z,17.72
2018-12-06T06:35:06.123Z,17.73
2018-12-06T06:36:06.260Z,17.82
2018-12-06T06:37:06.471Z,17.78
2018-12-06T06:38:06.286Z,17.76
2018-12-06T06:39:06.168Z,17.80
2018-12-06T06:40:06.188Z,17.86
2018-12-06T06:41:06.324Z,17.90
2018-12-06T06:42:06.378Z,17.95
2018-12-06T06:43:06.252Z,17.88
2018-12-06T06:44:06.251Z,17.88
2018-12-06T06:45:06.258Z,17.88
2018-12-06T06:46:06.266Z,17.87
2018-12-06T06:47:06.425Z,17.88
2018-12-06T06:48:06.329Z,17.87
2018-12-06T06:49:13.502Z,17.79
2018-12-06T06:50:06.450Z,17.75
2018-12-06T06:51:06.346Z,17.76
2018-12-06T06:52:06.572Z,17.73
2018-12-06T06:53:06.394Z,17.72
2018-12-06T06:54:06.385Z,17.76
2018-12-06T06:55:06.510Z,17.75
2018-12-06T06:56:06.397Z,17.69
2018-12-06T06:57:06.516Z,17.69
2018-12-06T06:58:06.556Z,17.68
2018-12-06T06:59:06.570Z,17.56
2018-12-06T07:00:06.459Z,17.53
2018-12-06T07:01:06.592Z,17.41
2018-12-06T07:02:06.709Z,17.44
2018-12-06T07:03:06.494Z,17.35
2018-12-06T07:04:06.510Z,17.38
2018-12-06T07:05:06.566Z,17.46
2018-12-06T07:06:06.528Z,17.38
2018-12-06T07:07:06.769Z,17.38
2018-12-06T07:08:06.562Z,17.44
2018-12-06T07:09:06.701Z,17.39
2018-12-06T07:10:06.712Z,17.23
2018-12-06T07:11:06.654Z,17.28
2018-12-06T07:12:06.802Z,17.32
2018-12-06T07:13:06.625Z,17.24
2018-12-06T07:14:06.637Z,17.35
2018-12-06T07:15:06.655Z,17.41
2018-12-06T07:16:06.791Z,17.52
2018-12-06T07:17:06.777Z,17.50
2018-12-06T07:18:06.686Z,17.41
2018-12-06T07:19:06.832Z,17.42
2018-12-06T07:20:06.840Z,17.46
2018-12-06T07:21:06.724Z,17.54
2018-12-06T07:22:06.852Z,17.57
2018-12-06T07:23:06.885Z,17.63
2018-12-06T07:24:06.782Z,17.63
2018-12-06T07:25:06.793Z,17.79
2018-12-06T07:26:06.794Z,17.80
2018-12-06T07:27:06.931Z,17.73
2018-12-06T07:28:06.822Z,17.80
2018-12-06T07:29:06.833Z,17.79
2018-12-06T07:30:12.260Z,17.71
2018-12-06T07:31:06.870Z,17.76
2018-12-06T07:32:06.982Z,17.80
2018-12-06T07:33:06.895Z,17.79
2018-12-06T07:34:06.898Z,17.72
2018-12-06T07:35:06.917Z,17.82
2018-12-06T07:36:06.970Z,17.76
2018-12-06T07:37:07.035Z,17.93
2018-12-06T07:38:07.083Z,17.86
2018-12-06T07:39:06.984Z,17.91
2018-12-06T07:40:06.978Z,18.00
2018-12-06T07:41:07.000Z,18.03
2018-12-06T07:42:07.108Z,18.11
2018-12-06T07:43:07.144Z,18.09
2018-12-06T07:44:07.045Z,18.19
2018-12-06T07:45:07.038Z,18.19
2018-12-06T07:46:07.189Z,18.39
2018-12-06T07:47:07.348Z,18.36
2018-12-06T07:48:07.132Z,18.36
2018-12-06T07:49:07.106Z,18.41
2018-12-06T07:50:07.122Z,18.39
2018-12-06T07:51:07.135Z,18.27
2018-12-06T07:52:07.236Z,18.27
2018-12-06T07:53:07.277Z,18.24
2018-12-06T07:54:07.178Z,18.26
2018-12-06T07:55:07.201Z,18.27
2018-12-06T07:56:07.221Z,18.30
2018-12-06T07:57:07.455Z,18.30
2018-12-06T07:58:07.233Z,18.34
2018-12-06T07:59:07.243Z,18.37
2018-12-06T08:00:07.254Z,18.43
2018-12-06T08:01:07.270Z,18.49
2018-12-06T08:02:07.375Z,18.49
2018-12-06T08:03:07.416Z,18.49
2018-12-06T08:04:07.304Z,18.63
2018-12-06T08:05:07.440Z,18.61
2018-12-06T08:06:07.328Z,18.60
2018-12-06T08:07:07.663Z,18.58
2018-12-06T08:08:07.488Z,18.60
2018-12-06T08:09:07.394Z,18.71
2018-12-06T08:10:07.447Z,18.71
2018-12-06T08:11:07.524Z,18.67
2018-12-06T08:12:07.517Z,18.67
2018-12-06T08:13:07.431Z,18.67
2018-12-06T08:14:07.451Z,18.73
2018-12-06T08:15:07.576Z,18.74
2018-12-06T08:16:07.476Z,18.81
2018-12-06T08:17:07.710Z,18.86
2018-12-06T08:18:07.505Z,18.71
2018-12-06T08:19:07.521Z,18.86
2018-12-06T08:20:07.522Z,18.82
2018-12-06T08:21:07.661Z,18.88
2018-12-06T08:22:07.754Z,18.81
2018-12-06T08:23:07.562Z,18.88
2018-12-06T08:24:07.702Z,18.83
2018-12-06T08:25:07.595Z,18.83
2018-12-06T08:26:07.601Z,18.96
2018-12-06T08:27:07.723Z,18.97
2018-12-06T08:28:07.634Z,18.96
2018-12-06T08:29:07.772Z,19.05
2018-12-06T08:30:07.702Z,19.08
2018-12-06T08:31:07.683Z,19.01
2018-12-06T08:32:07.898Z,19.17
2018-12-06T08:33:07.709Z,19.12
2018-12-06T08:34:07.726Z,19.09
2018-12-06T08:35:07.738Z,19.11
2018-12-06T08:36:07.751Z,19.24
2018-12-06T08:37:07.987Z,19.27
2018-12-06T08:38:07.898Z,19.23
2018-12-06T08:39:07.785Z,19.20
2018-12-06T08:40:07.798Z,19.34
2018-12-06T08:41:07.810Z,19.29
2018-12-06T08:42:08.059Z,19.41
2018-12-06T08:43:07.894Z,19.39
2018-12-06T08:44:07.983Z,19.39
2018-12-06T08:45:07.995Z,19.45
2018-12-06T08:46:08.009Z,19.53
2018-12-06T08:47:08.009Z,19.57
2018-12-06T08:48:08.041Z,19.63
2018-12-06T08:49:08.053Z,19.70
2018-12-06T08:50:07.944Z,19.64
2018-12-06T08:51:07.963Z,19.67
2018-12-06T08:52:08.115Z,19.75
2018-12-06T08:53:07.993Z,19.82
2018-12-06T08:54:08.133Z,19.82
2018-12-06T08:55:08.030Z,19.92
2018-12-06T08:56:08.031Z,19.90
2018-12-06T08:57:08.137Z,20.00
2018-12-06T08:58:08.054Z,20.04
2018-12-06T08:59:08.101Z,20.00
2018-12-06T09:00:08.097Z,20.03
2018-12-06T09:01:08.676Z,20.04
2018-12-06T09:02:08.338Z,20.14
2018-12-06T09:03:08.132Z,20.10
2018-12-06T09:04:08.273Z,20.18
2018-12-06T09:05:08.180Z,20.29
2018-12-06T09:06:08.301Z,20.29
2018-12-06T09:07:08.286Z,20.37
2018-12-06T09:08:08.217Z,20.39
2018-12-06T09:09:08.221Z,20.37
2018-12-06T09:10:08.237Z,20.40
2018-12-06T09:11:08.295Z,20.56
2018-12-06T09:12:08.368Z,20.50
2018-12-06T09:13:08.400Z,20.46
2018-12-06T09:14:08.303Z,20.56
2018-12-06T09:15:08.311Z,20.53
2018-12-06T09:16:08.340Z,20.56
2018-12-06T09:17:08.333Z,20.58
2018-12-06T09:18:08.577Z,20.66
2018-12-06T09:19:08.378Z,20.66
2018-12-06T09:20:08.383Z,20.56
2018-12-06T09:21:08.405Z,20.60
2018-12-06T09:22:08.424Z,20.70
2018-12-06T09:23:08.525Z,20.74
2018-12-06T09:24:08.447Z,20.78
2018-12-06T09:25:08.464Z,20.86
2018-12-06T09:26:08.474Z,20.96
2018-12-06T09:27:08.502Z,20.92
2018-12-06T09:28:08.690Z,21.00
2018-12-06T09:29:08.524Z,21.01
2018-12-06T09:30:08.662Z,21.07
2018-12-06T09:31:08.550Z,21.13
2018-12-06T09:32:08.685Z,21.20
2018-12-06T09:33:08.800Z,21.38
2018-12-06T09:34:08.718Z,21.53
2018-12-06T09:35:08.732Z,21.74
2018-12-06T09:36:08.617Z,21.84
2018-12-06T09:37:08.651Z,22.07
2018-12-06T09:38:08.807Z,22.44
2018-12-06T09:39:08.675Z,22.51
2018-12-06T09:40:08.695Z,22.43
2018-12-06T09:41:08.694Z,22.56
2018-12-06T09:42:08.717Z,22.46
2018-12-06T09:43:09.068Z,22.53
2018-12-06T09:44:08.767Z,22.59
2018-12-06T09:45:08.757Z,22.68
2018-12-06T09:46:08.797Z,22.91
2018-12-06T09:47:08.799Z,23.13
2018-12-06T09:48:08.919Z,23.18
2018-12-06T09:49:08.829Z,23.29
2018-12-06T09:50:08.845Z,23.56
2018-12-06T09:51:08.862Z,23.64
2018-12-06T09:52:08.903Z,23.84
2018-12-06T09:53:09.008Z,24.18
2018-12-06T09:54:08.971Z,24.31
2018-12-06T09:55:09.069Z,24.22
2018-12-06T09:56:08.996Z,24.29
2018-12-06T09:57:08.979Z,24.22
2018-12-06T09:58:09.095Z,24.26
2018-12-06T09:59:09.007Z,24.36
2018-12-06T10:00:09.019Z,24.58
2018-12-06T10:01:09.044Z,24.88
2018-12-06T10:02:09.056Z,24.84
2018-12-06T10:03:09.183Z,24.59
2018-12-06T10:04:09.217Z,24.66
2018-12-06T10:05:09.116Z,24.81
2018-12-06T10:06:09.253Z,24.85
2018-12-06T10:07:09.269Z,24.85
2018-12-06T10:08:09.207Z,25.03
2018-12-06T10:09:09.239Z,24.97
2018-12-06T10:10:09.200Z,24.96
2018-12-06T10:11:09.347Z,25.21
2018-12-06T10:12:09.328Z,25.51
2018-12-06T10:13:09.252Z,25.67
2018-12-06T10:14:09.267Z,25.43
2018-12-06T10:15:09.317Z,25.25
2018-12-06T10:16:09.309Z,25.06
2018-12-06T10:17:09.425Z,24.96
2018-12-06T10:18:09.350Z,25.07
2018-12-06T10:19:09.366Z,25.24
2018-12-06T10:20:09.378Z,25.48
2018-12-06T10:21:09.397Z,25.63
2018-12-06T10:22:09.510Z,25.56
2018-12-06T10:23:09.441Z,25.71
2018-12-06T10:24:09.442Z,26.03
2018-12-06T10:25:09.476Z,26.51
2018-12-06T10:26:09.483Z,26.91
2018-12-06T10:27:09.593Z,26.92
2018-12-06T10:28:09.525Z,26.83
2018-12-06T10:29:09.590Z,26.60
2018-12-06T10:30:09.564Z,26.48
2018-12-06T10:31:09.616Z,26.63
2018-12-06T10:32:09.709Z,26.66
2018-12-06T10:33:09.608Z,26.48
2018-12-06T10:34:09.654Z,26.81
2018-12-06T10:35:09.790Z,26.92
2018-12-06T10:36:09.795Z,27.01
2018-12-06T10:37:09.917Z,27.05
2018-12-06T10:38:09.711Z,27.11
2018-12-06T10:39:09.726Z,27.11
2018-12-06T10:40:09.752Z,27.07
2018-12-06T10:41:09.784Z,27.44
2018-12-06T10:42:09.903Z,27.98
2018-12-06T10:43:09.814Z,28.80
2018-12-06T10:44:09.875Z,29.49
2018-12-06T10:45:09.856Z,30.20
2018-12-06T10:46:09.873Z,30.76
2018-12-06T10:47:10.266Z,31.29
2018-12-06T10:48:09.916Z,31.85
2018-12-06T10:49:10.053Z,32.17
2018-12-06T10:50:09.945Z,32.56
2018-12-06T10:51:09.970Z,32.75
2018-12-06T10:52:10.084Z,32.94
2018-12-06T10:53:10.012Z,32.86
2018-12-06T10:54:10.152Z,33.00
2018-12-06T10:55:10.047Z,33.20
2018-12-06T10:56:10.066Z,33.29
2018-12-06T10:57:10.196Z,33.40
2018-12-06T10:58:10.118Z,33.57
2018-12-06T10:59:10.151Z,33.53
2018-12-06T11:00:10.161Z,33.75
2018-12-06T11:01:10.307Z,33.66
2018-12-06T11:02:10.354Z,33.50
2018-12-06T11:03:10.349Z,33.53
2018-12-06T11:04:10.256Z,33.31
2018-12-06T11:05:10.267Z,32.85
2018-12-06T11:06:10.295Z,32.67
2018-12-06T11:07:10.440Z,32.37
2018-12-06T11:08:10.486Z,31.81
2018-12-06T11:09:10.489Z,31.73
2018-12-06T11:10:10.383Z,32.08
2018-12-06T11:11:10.530Z,31.87
2018-12-06T11:12:10.549Z,31.67
2018-12-06T11:13:10.607Z,32.07
2018-12-06T11:14:10.463Z,32.37
2018-12-06T11:15:10.499Z,32.07
2018-12-06T11:16:10.638Z,31.60
2018-12-06T11:17:10.547Z,31.07
2018-12-06T11:18:10.645Z,30.92
2018-12-06T11:19:10.703Z,31.48
2018-12-06T11:20:10.604Z,32.08
2018-12-06T11:21:10.616Z,32.61
2018-12-06T11:22:10.644Z,33.03
2018-12-06T11:23:10.867Z,33.20
2018-12-06T11:24:10.697Z,33.22
2018-12-06T11:25:10.710Z,33.45
2018-12-06T11:26:10.741Z,33.88
2018-12-06T11:27:10.766Z,34.13
2018-12-06T11:28:10.884Z,34.02
2018-12-06T11:29:10.799Z,34.14
2018-12-06T11:30:10.943Z,34.69
2018-12-06T11:31:10.855Z,34.82
2018-12-06T11:32:10.884Z,35.22
2018-12-06T11:33:10.985Z,35.45
2018-12-06T11:34:10.910Z,35.49
2018-12-06T11:35:10.942Z,35.75
2018-12-06T11:36:10.956Z,36.01
2018-12-06T11:37:10.981Z,36.32
2018-12-06T11:38:11.166Z,36.39
2018-12-06T11:39:11.033Z,36.39
2018-12-06T11:40:11.113Z,35.84
2018-12-06T11:41:11.077Z,35.26
2018-12-06T11:42:11.126Z,34.63
2018-12-06T11:43:11.242Z,34.59
2018-12-06T11:44:11.196Z,35.05
2018-12-06T11:45:11.198Z,35.01
2018-12-06T11:46:11.222Z,35.12
2018-12-06T11:47:11.224Z,35.35
2018-12-06T11:48:11.365Z,35.07
2018-12-06T11:49:11.277Z,34.96
2018-12-06T11:50:11.351Z,34.97
2018-12-06T11:51:11.454Z,35.03
2018-12-06T11:52:11.398Z,34.70
2018-12-06T11:53:11.384Z,34.28
2018-12-06T11:54:11.503Z,34.22
2018-12-06T11:55:11.594Z,34.69
2018-12-06T11:56:11.477Z,35.16
2018-12-06T11:57:11.474Z,35.52
2018-12-06T11:58:11.672Z,35.54
2018-12-06T11:59:11.680Z,35.60
2018-12-06T12:00:11.673Z,35.74
2018-12-06T12:01:11.581Z,36.00
2018-12-06T12:02:11.607Z,36.13
2018-12-06T12:03:11.686Z,36.06
2018-12-06T12:04:11.762Z,36.08
2018-12-06T12:05:11.686Z,36.32
2018-12-06T12:06:11.696Z,36.35
2018-12-06T12:07:11.719Z,36.01
2018-12-06T12:08:11.770Z,35.88
2018-12-06T12:09:11.867Z,36.20
2018-12-06T12:10:11.793Z,36.60
2018-12-06T12:11:11.859Z,36.92
2018-12-06T12:12:11.843Z,36.96
2018-12-06T12:13:11.886Z,36.84
2018-12-06T12:14:12.040Z,36.69
2018-12-06T12:15:11.935Z,36.62
2018-12-06T12:16:11.987Z,36.75
2018-12-06T12:17:11.977Z,37.06
2018-12-06T12:18:12.011Z,36.97
2018-12-06T12:19:12.241Z,36.87
2018-12-06T12:20:12.056Z,37.06
2018-12-06T12:21:12.086Z,37.36
2018-12-06T12:22:12.102Z,37.57
2018-12-06T12:23:12.137Z,37.40
2018-12-06T12:24:12.259Z,37.43
2018-12-06T12:25:12.211Z,37.50
2018-12-06T12:26:12.231Z,37.64
2018-12-06T12:27:12.266Z,37.88
2018-12-06T12:28:12.379Z,38.01
2018-12-06T12:29:12.496Z,38.17
2018-12-06T12:30:12.324Z,38.13
2018-12-06T12:31:12.352Z,37.94
2018-12-06T12:32:12.371Z,37.91
2018-12-06T12:33:12.388Z,37.83
2018-12-06T12:34:12.514Z,37.85
2018-12-06T12:35:12.460Z,37.94
2018-12-06T12:36:12.462Z,38.16
2018-12-06T12:37:12.492Z,38.12
2018-12-06T12:38:12.528Z,37.83
2018-12-06T12:39:12.650Z,37.79
2018-12-06T12:40:12.599Z,37.91
2018-12-06T12:41:12.615Z,37.88
2018-12-06T12:42:12.633Z,38.16
2018-12-06T12:43:12.655Z,37.92
2018-12-06T12:44:12.896Z,37.71
2018-12-06T12:45:12.833Z,37.47
2018-12-06T12:46:12.755Z,37.22
2018-12-06T12:47:12.796Z,37.14
2018-12-06T12:48:12.848Z,37.19
2018-12-06T12:49:12.920Z,36.55
2018-12-06T12:50:12.841Z,36.35
2018-12-06T12:51:12.869Z,36.36
2018-12-06T12:52:12.894Z,36.51